Time;durP1;ratioP1;P1;durP2;ratioP2;P2;SDS_P1;SDS_P2;PMS_P1;PMS_P2;Temp;Humidity;BMP_temperature;BMP_pressure;BME280_temperature;BME280_humidity;BME280_pressure;Samples;Min_cycle;Max_cycle;Signal;HPM_P1;HPM_P2
2020/12/26 00:01:28;;;;;;;8.77;4.45;;;;;;;-2.03;77.92;101464.03;5024718;28;20508;-78
2020/12/26 00:03:53;;;;;;;8.32;3.97;;;;;;;-1.98;78.24;101469.69;5008718;28;20045;-78
2020/12/26 00:06:19;;;;;;;7.15;4.60;;;;;;;-1.91;77.95;101461.78;5021110;28;20034;-78
2020/12/26 00:08:45;;;;;;;5.55;3.25;;;;;;;-1.90;78.21;101460.81;5030369;28;20025;-78
2020/12/26 00:11:11;;;;;;;6.32;2.90;;;;;;;-1.87;78.45;101457.78;4995111;28;20098;-77
2020/12/26 00:13:37;;;;;;;6.45;2.95;;;;;;;-1.84;78.23;101458.25;5028572;28;20022;-78
2020/12/26 00:16:06;;;;;;;4.35;2.50;;;;;;;-1.75;78.03;101455.53;5028214;28;20360;-78
2020/12/26 00:18:32;;;;;;;4.45;2.22;;;;;;;-1.74;78.31;101457.22;5027717;28;20096;-78
2020/12/26 00:20:59;;;;;;;3.40;1.42;;;;;;;-1.70;78.37;101455.84;5027531;28;20718;-77
2020/12/26 00:23:25;;;;;;;4.60;1.60;;;;;;;-1.66;78.19;101458.00;5012012;28;20041;-78
2020/12/26 00:25:50;;;;;;;2.13;1.23;;;;;;;-1.64;78.77;101457.78;5029038;28;20022;-79
2020/12/26 00:28:16;;;;;;;2.83;1.60;;;;;;;-1.60;78.37;101453.78;5011089;28;20544;-78
2020/12/26 00:30:41;;;;;;;2.80;1.45;;;;;;;-1.59;78.24;101452.75;5024032;28;20021;-78
2020/12/26 00:33:07;;;;;;;4.13;1.42;;;;;;;-1.57;78.59;101459.59;5008626;28;20029;-78
2020/12/26 00:35:32;;;;;;;4.47;1.58;;;;;;;-1.54;78.31;101458.41;5029264;28;20033;-78
2020/12/26 00:37:58;;;;;;;2.33;1.95;;;;;;;-1.49;78.73;101461.38;5012389;28;20079;-78
2020/12/26 00:40:23;;;;;;;3.17;1.15;;;;;;;-1.46;78.78;101458.34;5026191;28;20052;-78
2020/12/26 00:42:50;;;;;;;2.25;1.20;;;;;;;-1.38;78.66;101463.66;5023917;28;20044;-78
2020/12/26 00:45:15;;;;;;;2.80;1.20;;;;;;;-1.31;78.62;101457.56;5012162;28;20107;-77
2020/12/26 00:47:40;;;;;;;3.28;1.20;;;;;;;-1.25;78.76;101463.06;5012049;28;20479;-78
2020/12/26 00:50:06;;;;;;;4.32;1.55;;;;;;;-1.16;78.57;101466.50;5008954;28;20033;-78
2020/12/26 00:52:32;;;;;;;3.67;1.33;;;;;;;-1.09;78.78;101467.44;5006970;28;20379;-78
2020/12/26 00:54:58;;;;;;;3.78;1.75;;;;;;;-1.03;78.80;101464.03;5001775;28;20018;-77
2020/12/26 00:57:23;;;;;;;3.17;1.23;;;;;;;-1.01;78.49;101467.38;5030786;28;20029;-77
2020/12/26 00:59:48;;;;;;;2.28;1.30;;;;;;;-1.02;78.67;101462.19;5029273;28;20490;-77
2020/12/26 01:02:17;;;;;;;3.45;1.45;;;;;;;-1.00;78.77;101461.00;5010744;28;20025;-77
2020/12/26 01:04:42;;;;;;;2.10;1.38;;;;;;;-0.99;78.84;101456.47;5009557;28;20022;-77
2020/12/26 01:07:07;;;;;;;3.33;1.40;;;;;;;-0.97;78.99;101452.59;5011015;28;20384;-78
2020/12/26 01:09:33;;;;;;;2.33;1.40;;;;;;;-0.94;78.83;101449.56;4998219;28;20017;-78
2020/12/26 01:11:58;;;;;;;4.55;1.88;;;;;;;-0.85;79.05;101453.00;5031550;28;20025;-78
2020/12/26 01:14:25;;;;;;;3.28;1.30;;;;;;;-0.78;79.01;101447.75;5014219;28;20037;-78
2020/12/26 01:16:50;;;;;;;3.05;1.48;;;;;;;-0.72;79.04;101436.31;5031157;28;20036;-78
2020/12/26 01:19:17;;;;;;;3.85;1.70;;;;;;;-0.67;78.92;101433.91;5033481;28;20987;-78
2020/12/26 01:21:43;;;;;;;3.72;1.30;;;;;;;-0.63;78.89;101427.16;5029812;28;20063;-78
2020/12/26 01:24:08;;;;;;;4.32;1.40;;;;;;;-0.60;79.16;101421.47;5009816;28;20073;-78
2020/12/26 01:26:33;;;;;;;6.55;1.67;;;;;;;-0.63;79.27;101408.41;5031687;28;20083;-78
2020/12/26 01:29:00;;;;;;;3.65;1.40;;;;;;;-0.63;79.08;101400.38;5021075;28;20041;-78
2020/12/26 01:31:27;;;;;;;2.58;1.40;;;;;;;-0.63;79.17;101400.38;5012574;28;20030;-78
2020/12/26 01:33:53;;;;;;;3.15;1.20;;;;;;;-0.64;79.22;101396.06;5027290;28;20394;-78
2020/12/26 01:36:18;;;;;;;2.78;1.30;;;;;;;-0.65;79.29;101399.75;5026615;28;20478;-78
2020/12/26 01:38:43;;;;;;;2.97;1.42;;;;;;;-0.65;79.28;101393.56;5015555;28;20029;-78
2020/12/26 01:41:09;;;;;;;2.08;1.25;;;;;;;-0.65;79.11;101391.72;5029654;28;20036;-78
2020/12/26 01:43:34;;;;;;;2.58;1.10;;;;;;;-0.63;79.45;101381.63;4998459;28;20112;-78
2020/12/26 01:46:00;;;;;;;2.72;1.20;;;;;;;-0.63;79.50;101373.59;5032191;28;20033;-78
2020/12/26 01:48:25;;;;;;;4.13;1.38;;;;;;;-0.60;79.27;101373.25;4996864;28;20052;-78
2020/12/26 01:50:51;;;;;;;3.95;1.20;;;;;;;-0.59;79.16;101371.41;5006046;28;20080;-78
2020/12/26 01:53:17;;;;;;;2.60;1.10;;;;;;;-0.57;79.46;101370.19;4997145;28;20414;-78
2020/12/26 01:55:42;;;;;;;3.75;1.17;;;;;;;-0.55;79.53;101357.44;4994641;28;20513;-78
2020/12/26 01:58:14;;;;;;;1.83;1.20;;;;;;;-0.52;79.26;101356.22;5033263;28;20029;-78
2020/12/26 02:00:40;;;;;;;3.22;1.10;;;;;;;-0.48;79.50;101354.84;5011987;28;20066;-78
2020/12/26 02:03:05;;;;;;;3.55;1.35;;;;;;;-0.42;79.63;101355.97;5012517;28;20042;-78
2020/12/26 02:05:31;;;;;;;3.83;1.45;;;;;;;-0.35;79.68;101346.16;5011010;28;20429;-78
2020/12/26 02:07:56;;;;;;;1.92;1.00;;;;;;;-0.29;79.45;101342.72;5013986;28;20025;-78
2020/12/26 02:10:21;;;;;;;2.05;1.25;;;;;;;-0.24;79.57;101343.00;4994316;28;22337;-78
2020/12/26 02:12:47;;;;;;;3.03;1.33;;;;;;;-0.19;79.48;101337.91;5010461;28;21283;-78
2020/12/26 02:15:14;;;;;;;3.88;1.20;;;;;;;-0.13;79.32;101331.78;5031228;28;20026;-78
2020/12/26 02:17:39;;;;;;;2.67;1.30;;;;;;;-0.08;79.80;101326.69;5033252;28;20017;-79
2020/12/26 02:20:05;;;;;;;2.17;1.25;;;;;;;-0.04;79.79;101322.59;5008733;28;20025;-78
2020/12/26 02:22:30;;;;;;;1.70;1.00;;;;;;;0.02;79.72;101321.00;5009565;28;20053;-78
2020/12/26 02:24:57;;;;;;;4.00;1.30;;;;;;;0.05;79.50;101309.06;5028632;28;20022;-78
2020/12/26 02:27:22;;;;;;;1.40;0.98;;;;;;;0.08;79.55;101304.16;5015101;28;20029;-78
2020/12/26 02:29:47;;;;;;;3.20;1.42;;;;;;;0.12;79.53;101299.25;5029276;28;20025;-78
2020/12/26 02:32:13;;;;;;;4.60;1.83;;;;;;;0.13;79.93;101296.34;5011570;28;20021;-78
2020/12/26 02:34:38;;;;;;;2.65;1.40;;;;;;;0.17;79.51;101294.13;5012039;28;20033;-78
2020/12/26 02:37:04;;;;;;;4.95;2.08;;;;;;;0.23;80.12;101285.31;5012493;28;20018;-78
2020/12/26 02:39:29;;;;;;;3.28;2.28;;;;;;;0.29;79.94;101286.38;5003462;28;20437;-78
2020/12/26 02:41:55;;;;;;;3.75;2.67;;;;;;;0.34;79.91;101287.47;5011506;28;20049;-78
2020/12/26 02:44:20;;;;;;;5.85;2.50;;;;;;;0.37;79.82;101281.72;5030280;28;20033;-78
2020/12/26 02:46:49;;;;;;;6.05;3.22;;;;;;;0.38;79.76;101279.84;5016423;28;20083;-78
2020/12/26 02:49:15;;;;;;;3.45;2.05;;;;;;;0.38;79.80;101283.38;5008925;28;20025;-78
2020/12/26 02:51:41;;;;;;;2.78;1.70;;;;;;;0.38;79.77;101293.25;4994108;28;20491;-78
2020/12/26 02:54:06;;;;;;;4.53;2.05;;;;;;;0.38;80.21;101298.63;5029316;28;20030;-78
2020/12/26 02:56:32;;;;;;;3.92;2.05;;;;;;;0.39;79.97;101281.53;5027442;28;20026;-78
2020/12/26 02:58:57;;;;;;;3.58;2.17;;;;;;;0.38;80.07;101272.66;5030507;28;20033;-78
2020/12/26 03:01:22;;;;;;;3.33;1.70;;;;;;;0.40;80.21;101269.75;5013769;28;20031;-78
2020/12/26 03:03:48;;;;;;;5.25;2.00;;;;;;;0.41;80.35;101266.06;5011223;28;20559;-78
2020/12/26 03:06:13;;;;;;;4.80;2.13;;;;;;;0.41;79.86;101261.53;5026720;28;20029;-79
2020/12/26 03:08:40;;;;;;;4.00;2.03;;;;;;;0.42;80.30;101248.94;5012294;28;20044;-78
2020/12/26 03:11:05;;;;;;;6.05;2.15;;;;;;;0.39;80.16;101242.13;5012329;28;20021;-78
2020/12/26 03:13:31;;;;;;;3.30;1.90;;;;;;;0.38;80.38;101240.47;5030679;28;20467;-78
2020/12/26 03:16:00;;;;;;;4.40;2.10;;;;;;;0.38;80.55;101243.16;5013690;28;20391;-79
2020/12/26 03:18:25;;;;;;;4.45;2.25;;;;;;;0.38;80.47;101234.25;5009702;28;20045;-79
2020/12/26 03:20:50;;;;;;;4.50;1.85;;;;;;;0.37;80.35;101225.38;5007845;28;20033;-79
2020/12/26 03:23:16;;;;;;;5.13;3.03;;;;;;;0.39;80.76;101226.03;5028830;28;20053;-79
2020/12/26 03:25:41;;;;;;;3.80;2.17;;;;;;;0.41;80.74;101213.25;5028341;28;20021;-79
2020/12/26 03:28:07;;;;;;;3.80;1.90;;;;;;;0.43;80.37;101208.50;5020887;28;20498;-78
2020/12/26 03:30:32;;;;;;;3.78;1.90;;;;;;;0.47;80.82;101216.19;5021112;28;20033;-78
2020/12/26 03:32:57;;;;;;;2.75;1.80;;;;;;;0.50;80.75;101210.41;5002211;28;20044;-78
2020/12/26 03:35:23;;;;;;;3.60;1.80;;;;;;;0.51;80.47;101202.16;4995307;28;20022;-79
2020/12/26 03:37:50;;;;;;;4.28;1.90;;;;;;;0.52;80.64;101202.97;5013185;28;20444;-79
2020/12/26 03:40:15;;;;;;;4.53;1.83;;;;;;;0.54;80.25;101206.28;5007440;28;20025;-78
2020/12/26 03:42:40;;;;;;;3.83;1.77;;;;;;;0.54;80.60;101200.94;5016105;28;20091;-78
2020/12/26 03:45:07;;;;;;;3.97;1.80;;;;;;;0.56;80.58;101193.53;5030363;28;20025;-78
2020/12/26 03:47:33;;;;;;;5.80;1.83;;;;;;;0.57;80.71;101190.66;5023218;28;20387;-78
2020/12/26 03:49:58;;;;;;;3.25;1.60;;;;;;;0.59;80.73;101193.13;5007765;28;20035;-78
2020/12/26 03:52:23;;;;;;;5.13;2.30;;;;;;;0.60;80.95;101187.56;4995694;28;20033;-78
2020/12/26 03:54:49;;;;;;;4.82;2.15;;;;;;;0.62;81.11;101177.44;5029909;28;20474;-79
2020/12/26 03:57:14;;;;;;;4.70;2.40;;;;;;;0.64;81.03;101174.59;5013994;28;20017;-78
2020/12/26 03:59:40;;;;;;;2.17;1.55;;;;;;;0.66;80.82;101177.91;5011065;28;20394;-78
2020/12/26 04:02:06;;;;;;;4.65;1.75;;;;;;;0.68;80.78;101175.81;5027025;28;20021;-78
2020/12/26 04:04:31;;;;;;;4.03;2.22;;;;;;;0.70;81.21;101173.78;4997187;28;20037;-78
2020/12/26 04:06:57;;;;;;;4.35;2.00;;;;;;;0.74;81.25;101169.69;4996514;28;20497;-78
2020/12/26 04:09:22;;;;;;;3.78;1.75;;;;;;;0.75;81.64;101163.28;5027936;28;20040;-78
2020/12/26 04:11:47;;;;;;;2.72;1.80;;;;;;;0.78;81.41;101160.19;5010542;28;20035;-78
2020/12/26 04:14:13;;;;;;;4.40;1.98;;;;;;;0.79;81.27;101145.75;5013625;28;20382;-78
2020/12/26 04:16:38;;;;;;;3.75;2.15;;;;;;;0.81;81.83;101142.88;5013401;28;20033;-78
2020/12/26 04:19:04;;;;;;;4.45;2.13;;;;;;;0.83;81.61;101138.94;5025351;28;20033;-78
2020/12/26 04:21:29;;;;;;;4.80;2.45;;;;;;;0.85;81.45;101138.75;5025979;28;20029;-78
2020/12/26 04:23:55;;;;;;;4.93;2.13;;;;;;;0.88;81.57;101147.22;5010561;28;20403;-78
2020/12/26 04:26:20;;;;;;;5.97;2.33;;;;;;;0.89;81.27;101146.19;4997653;28;20091;-78
2020/12/26 04:28:46;;;;;;;3.47;2.00;;;;;;;0.92;81.74;101149.50;5030047;28;20063;-78
2020/12/26 04:31:11;;;;;;;4.85;2.13;;;;;;;0.95;81.37;101143.72;5009569;28;20033;-78
2020/12/26 04:33:37;;;;;;;4.05;2.20;;;;;;;0.96;82.08;101134.66;5012716;28;20025;-78
2020/12/26 04:36:03;;;;;;;9.05;2.78;;;;;;;0.98;81.56;101132.59;4997421;28;20037;-78
2020/12/26 04:38:29;;;;;;;5.20;1.75;;;;;;;1.00;82.08;101130.53;5029508;28;20053;-78
2020/12/26 04:40:55;;;;;;;3.38;2.08;;;;;;;1.06;81.89;101129.72;5024925;28;20108;-79
2020/12/26 04:43:21;;;;;;;3.72;2.03;;;;;;;1.07;81.59;101129.53;5007554;28;20072;-78
2020/12/26 04:45:47;;;;;;;4.82;1.98;;;;;;;1.13;82.35;101124.38;5011492;28;20041;-79
2020/12/26 04:48:14;;;;;;;2.42;1.60;;;;;;;1.16;81.90;101103.31;4999734;28;20021;-78
2020/12/26 04:50:47;;;;;;;4.15;1.80;;;;;;;1.21;81.96;101114.28;5011525;28;20030;-78
2020/12/26 04:53:17;;;;;;;3.55;1.42;;;;;;;1.24;81.97;101116.56;5014065;28;20033;-78
2020/12/26 04:55:49;;;;;;;7.03;1.92;;;;;;;1.28;82.63;101103.53;5014499;28;20025;-79
2020/12/26 04:58:18;;;;;;;3.90;1.75;;;;;;;1.32;82.42;101105.63;5013635;28;20124;-79
2020/12/26 05:00:44;;;;;;;4.55;1.70;;;;;;;1.36;82.79;101105.19;5028507;28;20021;-78
2020/12/26 05:03:14;;;;;;;3.30;1.75;;;;;;;1.40;82.83;101101.09;5015151;28;20036;-78
2020/12/26 05:05:43;;;;;;;4.57;2.45;;;;;;;1.44;82.17;101105.00;5033266;28;20032;-78
2020/12/26 05:08:11;;;;;;;5.85;1.95;;;;;;;1.47;82.18;101105.44;5012754;28;20021;-78
2020/12/26 05:10:37;;;;;;;4.53;1.83;;;;;;;1.54;82.14;101105.44;5022485;28;20037;-78
2020/12/26 05:13:04;;;;;;;4.07;1.77;;;;;;;1.56;82.52;101098.00;5028816;28;20033;-78
2020/12/26 05:15:30;;;;;;;6.20;1.73;;;;;;;1.60;82.66;101093.84;4985011;28;20060;-78
2020/12/26 05:17:55;;;;;;;5.90;1.95;;;;;;;1.68;82.67;101101.69;5013754;28;20093;-78
2020/12/26 05:20:24;;;;;;;6.40;1.77;;;;;;;1.71;82.34;101093.22;5031359;28;20041;-78
2020/12/26 05:23:13;;;;;;;5.07;1.80;;;;;;;1.76;82.87;101098.81;5014991;28;20096;-78
2020/12/26 05:25:42;;;;;;;4.93;1.90;;;;;;;1.85;82.29;101098.59;5032964;28;20029;-78
2020/12/26 05:28:32;;;;;;;4.22;1.60;;;;;;;2.03;83.13;101088.03;5032896;28;20067;-78
2020/12/26 05:30:57;;;;;;;3.60;0.90;;;;;;;2.27;82.30;101091.91;5010310;28;20060;-78
2020/12/26 05:33:22;;;;;;;8.55;1.25;;;;;;;2.45;81.67;101096.59;4993840;28;20037;-79
2020/12/26 05:35:49;;;;;;;3.72;0.82;;;;;;;2.58;80.45;101093.84;4997206;28;20030;-78
2020/12/26 05:38:22;;;;;;;2.65;0.85;;;;;;;2.67;80.27;101095.28;5010621;28;20109;-79
2020/12/26 05:40:49;;;;;;;3.65;1.00;;;;;;;2.77;79.91;101094.00;4995478;28;20061;-78
2020/12/26 05:43:17;;;;;;;1.73;0.90;;;;;;;2.83;79.15;101085.88;5033137;28;20049;-78
2020/12/26 05:45:42;;;;;;;3.95;0.88;;;;;;;2.89;77.63;101093.09;5030593;28;20029;-78
2020/12/26 05:48:12;;;;;;;1.23;0.60;;;;;;;2.96;76.72;101087.66;5015089;28;20033;-78
2020/12/26 05:50:37;;;;;;;1.88;1.13;;;;;;;3.03;77.25;101093.03;5007762;28;20029;-78
2020/12/26 05:53:03;;;;;;;5.80;1.48;;;;;;;3.06;77.62;101089.91;5011733;28;20524;-78
2020/12/26 05:55:38;;;;;;;5.20;1.45;;;;;;;3.10;78.07;101091.94;4993408;28;20026;-79
2020/12/26 05:58:04;;;;;;;1.63;0.85;;;;;;;3.13;77.70;101084.47;4991134;28;20119;-78
2020/12/26 06:00:48;;;;;;;4.68;1.20;;;;;;;3.16;77.75;101092.91;5014627;28;20475;-79
2020/12/26 06:03:22;;;;;;;4.57;1.83;;;;;;;3.18;77.62;101084.63;5004150;28;20029;-79
2020/12/26 06:05:48;;;;;;;2.47;1.30;;;;;;;3.22;78.16;101085.84;5014331;28;20033;-79
2020/12/26 06:08:15;;;;;;;5.93;1.45;;;;;;;3.22;78.14;101092.09;5012935;28;20029;-79
2020/12/26 06:10:40;;;;;;;6.35;2.15;;;;;;;3.23;77.70;101084.81;5005863;28;20029;-78
2020/12/26 06:13:06;;;;;;;3.15;1.70;;;;;;;3.24;77.72;101081.06;4998428;28;20351;-79
2020/12/26 06:15:32;;;;;;;5.35;1.65;;;;;;;3.25;78.34;101074.66;5011334;28;20022;-79
2020/12/26 06:17:57;;;;;;;5.68;1.60;;;;;;;3.27;78.21;101075.25;4994678;28;20398;-79
2020/12/26 06:20:22;;;;;;;3.22;1.63;;;;;;;3.29;78.09;101070.47;5002867;28;20039;-80
2020/12/26 06:22:49;;;;;;;5.22;1.50;;;;;;;3.31;78.19;101063.00;4994574;28;20103;-79
2020/12/26 06:25:16;;;;;;;3.47;1.50;;;;;;;3.32;78.57;101053.84;5031274;28;20433;-81
2020/12/26 06:28:00;;;;;;;3.40;1.63;;;;;;;3.33;78.13;101055.53;5024999;28;20075;-79
2020/12/26 06:30:27;;;;;;;6.32;1.75;;;;;;;3.36;78.11;101055.09;5012521;28;20482;-79
2020/12/26 06:32:52;;;;;;;3.00;2.05;;;;;;;3.38;78.28;101046.75;4995630;28;20576;-79
2020/12/26 06:35:18;;;;;;;9.38;2.30;;;;;;;3.39;78.23;101049.25;5010904;28;20025;-79
2020/12/26 06:37:44;;;;;;;8.82;1.55;;;;;;;3.40;78.24;101044.69;5012302;28;20430;-79
2020/12/26 06:40:31;;;;;;;2.38;1.20;;;;;;;3.41;78.54;101047.16;5027191;28;20114;-79
2020/12/26 06:42:56;;;;;;;3.63;1.60;;;;;;;3.41;77.79;101052.56;5022920;28;20483;-80
2020/12/26 06:45:35;;;;;;;2.75;1.25;;;;;;;3.42;78.20;101056.88;5014485;28;20040;-79
2020/12/26 06:48:01;;;;;;;3.25;1.23;;;;;;;3.43;78.29;101045.06;5010381;28;20053;-79
2020/12/26 06:50:28;;;;;;;5.00;1.63;;;;;;;3.42;78.13;101048.81;4996937;28;21055;-80
2020/12/26 06:52:53;;;;;;;2.75;1.33;;;;;;;3.41;78.59;101046.31;5013271;28;20068;-80
2020/12/26 06:55:41;;;;;;;3.92;1.70;;;;;;;3.41;78.64;101040.94;4997258;28;20383;-79
2020/12/26 06:58:10;;;;;;;9.30;3.53;;;;;;;3.40;78.54;101045.50;5010512;28;20116;-79
2020/12/26 07:00:36;;;;;;;5.35;2.40;;;;;;;3.38;78.72;101039.50;5025403;28;20021;-79
2020/12/26 07:03:19;;;;;;;3.90;2.50;;;;;;;3.39;79.08;101035.78;5029100;28;20593;-79
2020/12/26 07:05:45;;;;;;;6.63;1.85;;;;;;;3.42;79.21;101038.03;5030284;28;20094;-79
2020/12/26 07:08:27;;;;;;;4.28;1.90;;;;;;;3.44;79.19;101038.63;5030208;28;20056;-80
2020/12/26 07:10:53;;;;;;;4.65;2.35;;;;;;;3.44;79.29;101038.63;4993687;28;20017;-79
2020/12/26 07:13:54;;;;;;;3.85;2.00;;;;;;;3.43;79.13;101033.47;5031134;28;20053;-79
2020/12/26 07:16:37;;;;;;;5.45;2.22;;;;;;;3.45;79.20;101028.69;4969541;28;20039;-78
2020/12/26 07:19:21;;;;;;;5.85;1.80;;;;;;;3.46;79.56;101028.44;4969531;28;20117;-79
2020/12/26 07:21:52;;;;;;;7.22;1.45;;;;;;;3.48;79.22;101029.06;4970521;28;20081;-79
2020/12/26 07:24:23;;;;;;;3.13;1.45;;;;;;;3.50;79.14;101029.66;4993062;28;20076;-79
2020/12/26 07:26:48;;;;;;;2.70;1.20;;;;;;;3.50;79.17;101026.97;5028830;28;20117;-79
2020/12/26 07:29:26;;;;;;;3.13;1.35;;;;;;;3.48;78.66;101031.75;5007282;28;20109;-79
2020/12/26 07:31:52;;;;;;;3.00;1.10;;;;;;;3.46;78.69;101033.81;5011430;28;20033;-80
2020/12/26 07:34:35;;;;;;;3.92;1.13;;;;;;;3.40;78.22;101034.72;5027836;28;20120;-80
2020/12/26 07:37:01;;;;;;;2.88;0.98;;;;;;;3.36;78.27;101033.53;5028434;28;20037;-79
2020/12/26 07:39:26;;;;;;;5.00;1.40;;;;;;;3.33;77.50;101029.41;5010398;28;20031;-80
2020/12/26 07:41:52;;;;;;;3.80;1.33;;;;;;;3.32;77.63;101026.91;5027020;28;20021;-79
2020/12/26 07:44:18;;;;;;;4.22;1.60;;;;;;;3.30;78.16;101029.00;5009121;28;20025;-79
2020/12/26 07:46:44;;;;;;;3.50;1.08;;;;;;;3.28;78.27;101028.41;5029061;28;20379;-79
2020/12/26 07:49:13;;;;;;;3.53;0.95;;;;;;;3.24;78.80;101024.47;5009560;28;20029;-80
2020/12/26 07:51:39;;;;;;;3.08;1.08;;;;;;;3.21;78.77;101019.53;5027403;28;20029;-80
2020/12/26 07:54:04;;;;;;;1.95;1.30;;;;;;;3.17;79.14;101016.47;5027114;28;20029;-79
2020/12/26 07:56:31;;;;;;;3.85;1.17;;;;;;;3.14;79.34;101014.22;5025402;28;20434;-79
2020/12/26 07:58:56;;;;;;;5.38;1.33;;;;;;;3.14;79.83;101016.06;5024556;28;20021;-81
2020/12/26 08:01:25;;;;;;;14.70;1.65;;;;;;;3.10;80.15;101013.81;5010624;28;20663;-79
2020/12/26 08:04:08;;;;;;;3.13;1.38;;;;;;;3.05;80.68;101005.56;5004053;28;20025;-80
2020/12/26 08:06:34;;;;;;;2.83;1.00;;;;;;;3.04;81.01;101006.59;5023639;28;20040;-79
2020/12/26 08:09:00;;;;;;;5.63;1.20;;;;;;;3.01;80.94;101004.34;5006390;28;20017;-79
2020/12/26 08:11:25;;;;;;;3.38;1.00;;;;;;;3.03;81.08;100996.88;5007934;28;20387;-78
2020/12/26 08:14:01;;;;;;;3.50;1.00;;;;;;;3.06;81.66;100996.44;5009079;28;20033;-77
2020/12/26 08:16:26;;;;;;;2.67;0.80;;;;;;;3.06;81.35;100993.75;5016140;28;20020;-78
2020/12/26 08:18:52;;;;;;;4.03;1.13;;;;;;;3.07;81.34;100992.69;5005444;28;20025;-79
2020/12/26 08:21:20;;;;;;;1.58;0.80;;;;;;;3.08;81.82;100988.97;5010447;28;20088;-78
2020/12/26 08:23:56;;;;;;;3.13;2.05;;;;;;;3.12;81.62;100994.75;5025207;28;20134;-78
2020/12/26 08:26:23;;;;;;;1.73;0.70;;;;;;;3.15;81.66;100982.72;5006911;28;20041;-80
2020/12/26 08:28:49;;;;;;;3.65;0.95;;;;;;;3.16;82.02;100973.56;5009309;28;20033;-78
2020/12/26 08:31:14;;;;;;;2.80;1.30;;;;;;;3.18;82.30;100977.69;4996649;28;20574;-78
2020/12/26 08:33:42;;;;;;;4.35;1.20;;;;;;;3.22;82.35;100978.06;4994480;28;20082;-78
2020/12/26 08:36:51;;;;;;;4.50;1.42;;;;;;;3.25;82.57;100981.16;4992982;28;20025;-78
2020/12/26 08:39:17;;;;;;;3.67;1.05;;;;;;;3.26;82.53;100979.28;5021210;28;20068;-78
2020/12/26 08:41:42;;;;;;;4.18;1.65;;;;;;;3.28;82.88;100966.44;4990281;28;20459;-77
2020/12/26 08:44:11;;;;;;;4.30;0.90;;;;;;;3.27;82.88;100970.16;5011700;28;20349;-78
2020/12/26 08:46:44;;;;;;;4.45;1.15;;;;;;;3.26;83.02;100960.44;5027193;28;20024;-79
2020/12/26 08:49:10;;;;;;;6.90;0.90;;;;;;;3.26;82.57;100960.44;4992504;28;20087;-75
2020/12/26 08:51:42;;;;;;;2.92;0.85;;;;;;;3.29;83.21;100951.91;5025283;28;20037;-78
2020/12/26 08:54:17;;;;;;;3.72;0.88;;;;;;;3.33;82.74;100953.13;5018061;28;20053;-79
2020/12/26 08:56:43;;;;;;;3.92;0.80;;;;;;;3.37;83.00;100942.72;5012101;28;20033;-78
2020/12/26 08:59:08;;;;;;;2.97;0.80;;;;;;;3.39;83.03;100946.03;5023797;28;20022;-79
2020/12/26 09:01:34;;;;;;;3.67;0.90;;;;;;;3.41;83.21;100946.59;5025830;28;20037;-78
2020/12/26 09:03:59;;;;;;;4.15;1.15;;;;;;;3.44;83.11;100938.91;5023121;28;20136;-79
2020/12/26 09:06:39;;;;;;;4.13;1.27;;;;;;;3.48;83.44;100926.63;5008708;28;20029;-79
2020/12/26 09:09:20;;;;;;;6.45;1.33;;;;;;;3.53;83.56;100926.78;5011014;28;20497;-79
2020/12/26 09:11:46;;;;;;;8.88;1.88;;;;;;;3.55;83.75;100905.81;5021021;28;20036;-79
2020/12/26 09:14:18;;;;;;;1.90;0.80;;;;;;;3.58;83.95;100898.34;5028927;28;20036;-79
2020/12/26 09:16:43;;;;;;;5.35;1.15;;;;;;;3.61;84.28;100895.19;5017649;28;20446;-80
2020/12/26 09:19:08;;;;;;;5.80;0.80;;;;;;;3.65;83.94;100896.38;5015670;28;20490;-79
2020/12/26 09:21:34;;;;;;;3.90;0.90;;;;;;;3.68;83.87;100890.53;5025233;28;20025;-79
2020/12/26 09:23:59;;;;;;;5.13;0.80;;;;;;;3.72;83.92;100886.34;5007330;28;20177;-79
2020/12/26 09:26:36;;;;;;;4.32;0.70;;;;;;;3.77;84.29;100883.81;5011646;28;20060;-79
2020/12/26 09:29:02;;;;;;;3.55;1.00;;;;;;;3.82;83.94;100877.72;5027146;28;20159;-78
2020/12/26 09:31:34;;;;;;;2.53;0.75;;;;;;;3.85;84.22;100875.41;4999751;28;20482;-79
2020/12/26 09:34:01;;;;;;;1.08;0.75;;;;;;;3.89;84.47;100871.19;5011328;28;20082;-78
2020/12/26 09:36:27;;;;;;;2.72;1.00;;;;;;;3.93;84.16;100871.56;4996358;28;20426;-79
2020/12/26 09:38:53;;;;;;;5.28;1.30;;;;;;;3.99;84.40;100874.19;5008476;28;20041;-79
2020/12/26 09:41:24;;;;;;;6.32;1.30;;;;;;;4.04;84.49;100868.09;5014977;28;20039;-79
2020/12/26 09:43:54;;;;;;;4.03;0.93;;;;;;;4.11;84.55;100868.81;5031139;28;20040;-79
2020/12/26 09:46:20;;;;;;;3.30;0.75;;;;;;;4.15;84.40;100870.03;5027548;28;20048;-81
2020/12/26 09:48:46;;;;;;;8.82;1.17;;;;;;;4.22;84.50;100864.50;5012631;28;20029;-80
2020/12/26 09:51:19;;;;;;;3.42;0.95;;;;;;;4.22;84.55;100849.16;4996149;28;20045;-76
2020/12/26 09:53:44;;;;;;;4.05;1.00;;;;;;;4.25;84.61;100847.84;5028336;28;20109;-79
2020/12/26 09:56:10;;;;;;;5.80;1.10;;;;;;;4.27;84.39;100834.97;5030421;28;20014;-79
2020/12/26 09:58:37;;;;;;;3.67;1.15;;;;;;;4.28;84.63;100842.00;5030311;28;20021;-79
2020/12/26 10:01:02;;;;;;;6.53;1.08;;;;;;;4.31;84.49;100830.78;4992851;28;20119;-78
2020/12/26 10:03:28;;;;;;;3.85;1.02;;;;;;;4.29;84.72;100838.25;5028304;28;20376;-79
2020/12/26 10:05:53;;;;;;;6.93;0.80;;;;;;;4.31;84.68;100829.91;4992869;28;20490;-79
2020/12/26 10:08:19;;;;;;;1.83;0.70;;;;;;;4.33;84.87;100823.25;4990628;28;20087;-79
2020/12/26 10:10:44;;;;;;;9.23;0.77;;;;;;;4.35;84.63;100812.22;5029525;28;20025;-79
2020/12/26 10:13:11;;;;;;;5.13;0.75;;;;;;;4.40;84.91;100817.75;5008536;28;20025;-78
2020/12/26 10:15:36;;;;;;;6.28;0.50;;;;;;;4.43;84.50;100812.72;5028076;28;20025;-79
2020/12/26 10:18:02;;;;;;;1.65;0.90;;;;;;;4.48;84.26;100803.91;5028929;28;20034;-79
2020/12/26 10:20:27;;;;;;;2.38;0.63;;;;;;;4.52;84.16;100793.47;4995374;28;20035;-79
2020/12/26 10:22:52;;;;;;;7.15;0.90;;;;;;;4.55;83.63;100809.19;5028065;28;20041;-79
2020/12/26 10:25:19;;;;;;;6.70;1.13;;;;;;;4.59;83.49;100805.00;5029533;28;20479;-79
2020/12/26 10:27:44;;;;;;;4.22;1.10;;;;;;;4.61;83.36;100797.47;5030709;28;20483;-78
2020/12/26 10:30:10;;;;;;;2.17;0.52;;;;;;;4.62;83.08;100801.81;5013668;28;20032;-78
2020/12/26 10:32:35;;;;;;;2.92;0.60;;;;;;;4.61;82.83;100787.50;5014527;28;20033;-78
2020/12/26 10:35:01;;;;;;;2.30;1.02;;;;;;;4.61;82.71;100792.91;5011857;28;20426;-79
2020/12/26 10:37:27;;;;;;;6.65;0.85;;;;;;;4.65;82.85;100780.56;4996520;28;20022;-78
2020/12/26 10:39:52;;;;;;;6.72;0.77;;;;;;;4.68;82.81;100781.97;5023876;28;20513;-78
2020/12/26 10:42:18;;;;;;;5.50;1.00;;;;;;;4.70;82.54;100768.25;5007723;28;20037;-80
2020/12/26 10:44:43;;;;;;;6.45;1.08;;;;;;;4.70;82.77;100757.44;5018529;28;20025;-79
2020/12/26 10:47:09;;;;;;;5.97;0.90;;;;;;;4.70;82.49;100747.47;5010923;28;20136;-79
2020/12/26 10:49:34;;;;;;;5.10;1.33;;;;;;;4.72;82.43;100752.59;5010990;28;20085;-79
2020/12/26 10:51:59;;;;;;;4.97;1.30;;;;;;;4.74;82.46;100734.31;4996195;28;20025;-79
2020/12/26 10:54:25;;;;;;;8.32;1.63;;;;;;;4.75;82.81;100728.69;5009416;28;20413;-79
2020/12/26 10:56:50;;;;;;;6.38;0.98;;;;;;;4.80;82.78;100728.78;5026680;28;20033;-80
2020/12/26 10:59:15;;;;;;;3.70;1.77;;;;;;;4.82;82.85;100718.53;5026135;28;20033;-81
2020/12/26 11:01:41;;;;;;;5.57;1.00;;;;;;;4.85;81.96;100711.84;5011591;28;20041;-79
2020/12/26 11:04:06;;;;;;;1.30;0.45;;;;;;;4.86;81.85;100703.53;4996597;28;20390;-80
2020/12/26 11:06:32;;;;;;;4.88;0.90;;;;;;;4.87;81.49;100705.16;5010269;28;20048;-78
2020/12/26 11:08:57;;;;;;;4.57;0.70;;;;;;;4.88;81.56;100696.00;4989401;28;20029;-79
2020/12/26 11:11:24;;;;;;;4.50;0.90;;;;;;;4.87;81.25;100702.44;5027471;28;20438;-80
2020/12/26 11:13:50;;;;;;;4.70;0.50;;;;;;;4.87;81.40;100694.34;5028882;28;20375;-80
2020/12/26 11:16:15;;;;;;;7.55;0.68;;;;;;;4.86;81.45;100700.81;4996868;28;20048;-80
2020/12/26 11:18:42;;;;;;;5.32;1.08;;;;;;;4.85;81.31;100674.84;5009996;28;20546;-80
2020/12/26 11:21:08;;;;;;;6.68;0.95;;;;;;;4.84;81.20;100667.00;5006449;28;20117;-77
2020/12/26 11:23:33;;;;;;;3.10;0.90;;;;;;;4.84;81.08;100653.50;5006921;28;20042;-78
2020/12/26 11:25:58;;;;;;;1.17;0.40;;;;;;;4.83;80.95;100663.50;5025296;28;20052;-80
2020/12/26 11:28:24;;;;;;;2.97;0.80;;;;;;;4.81;80.92;100662.09;5012270;28;20037;-81
2020/12/26 11:30:49;;;;;;;3.72;1.20;;;;;;;4.79;80.93;100659.59;5003566;28;20037;-79
2020/12/26 11:33:15;;;;;;;6.10;0.85;;;;;;;4.77;81.20;100656.31;5002110;28;20045;-79